Schedule Details


Flight Number: CTN384
Departure: Cilipi (LDDU) at 15:50
Arrival: Fiumicino (LIRF) at 17:15
Route: AMUGO M169 ESODU Z924 MOPUV

Weather Information
LDDU 191130Z 18010KT 150V230 9999 FEW018 SCT043 13/08 Q1018 NOSIG
LIRF 191120Z 24005KT 220V280 8000 FEW010 BKN025 13/11 Q1021 NOSIG
Schedule Frequency

Route Map